createdAt,value
2019-05-29T00:00:36.052Z,8.01
2019-05-29T00:01:36.033Z,7.97
2019-05-29T00:02:36.039Z,8.00
2019-05-29T00:03:36.037Z,7.97
2019-05-29T00:04:35.994Z,7.93
2019-05-29T00:05:35.989Z,7.94
2019-05-29T00:06:35.981Z,7.90
2019-05-29T00:07:35.963Z,7.91
2019-05-29T00:08:35.962Z,7.94
2019-05-29T00:09:35.960Z,7.88
2019-05-29T00:10:35.928Z,7.82
2019-05-29T00:11:35.920Z,7.79
2019-05-29T00:12:35.905Z,7.80
2019-05-29T00:13:35.915Z,7.82
2019-05-29T00:14:35.898Z,7.83
2019-05-29T00:15:35.908Z,7.67
2019-05-29T00:16:35.865Z,7.82
2019-05-29T00:17:35.864Z,7.76
2019-05-29T00:18:35.848Z,7.85
2019-05-29T00:19:35.845Z,7.63
2019-05-29T00:20:35.819Z,7.73
2019-05-29T00:21:35.829Z,7.75
2019-05-29T00:22:35.798Z,7.70
2019-05-29T00:23:35.787Z,7.67
2019-05-29T00:24:35.789Z,7.57
2019-05-29T00:25:35.764Z,7.51
2019-05-29T00:26:35.754Z,7.69
2019-05-29T00:27:35.781Z,7.66
2019-05-29T00:28:35.729Z,7.61
2019-05-29T00:29:35.720Z,7.63
2019-05-29T00:30:35.729Z,7.67
2019-05-29T00:31:35.696Z,7.61
2019-05-29T00:32:36.105Z,7.50
2019-05-29T00:33:35.673Z,7.61
2019-05-29T00:34:35.662Z,7.63
2019-05-29T00:35:35.654Z,7.61
2019-05-29T00:36:35.643Z,7.61
2019-05-29T00:37:35.629Z,7.51
2019-05-29T00:38:35.661Z,7.54
2019-05-29T00:39:35.609Z,7.48
2019-05-29T00:40:35.609Z,7.53
2019-05-29T00:41:35.589Z,7.48
2019-05-29T00:42:35.583Z,7.50
2019-05-29T00:43:35.577Z,7.47
2019-05-29T00:44:35.602Z,7.35
2019-05-29T00:45:35.548Z,7.40
2019-05-29T00:46:35.539Z,7.36
2019-05-29T00:47:35.522Z,7.36
2019-05-29T00:48:35.513Z,7.31
2019-05-29T00:49:35.515Z,7.35
2019-05-29T00:50:35.508Z,7.35
2019-05-29T00:51:35.476Z,7.28
2019-05-29T00:52:35.495Z,7.31
2019-05-29T00:53:35.453Z,7.32
2019-05-29T00:54:35.463Z,7.38
2019-05-29T00:55:35.439Z,7.24
2019-05-29T00:56:35.440Z,7.33
2019-05-29T00:57:35.411Z,7.35
2019-05-29T00:58:35.400Z,7.38
2019-05-29T00:59:35.387Z,7.35
2019-05-29T01:00:35.389Z,7.35
2019-05-29T01:01:35.367Z,7.33
2019-05-29T01:02:35.374Z,7.32
2019-05-29T01:03:35.346Z,7.36
2019-05-29T01:04:35.349Z,7.29
2019-05-29T01:05:35.335Z,7.23
2019-05-29T01:06:35.325Z,7.31
2019-05-29T01:07:35.299Z,7.25
2019-05-29T01:08:35.334Z,7.21
2019-05-29T01:09:35.277Z,7.32
2019-05-29T01:10:35.294Z,7.25
2019-05-29T01:11:35.274Z,7.15
2019-05-29T01:12:35.245Z,7.14
2019-05-29T01:13:35.235Z,7.15
2019-05-29T01:14:49.288Z,7.18
2019-05-29T01:15:36.210Z,7.29
2019-05-29T01:16:35.207Z,7.18
2019-05-29T01:17:35.203Z,7.23
2019-05-29T01:18:35.182Z,7.23
2019-05-29T01:19:35.170Z,7.21
2019-05-29T01:20:35.189Z,7.20
2019-05-29T01:21:35.146Z,7.18
2019-05-29T01:22:35.166Z,7.21
2019-05-29T01:23:35.125Z,7.15
2019-05-29T01:24:42.730Z,7.14
2019-05-29T01:25:35.109Z,7.13
2019-05-29T01:26:35.100Z,7.02
2019-05-29T01:27:35.087Z,7.06
2019-05-29T01:28:35.110Z,7.05
2019-05-29T01:29:35.076Z,7.02
2019-05-29T01:30:35.073Z,7.02
2019-05-29T01:31:35.036Z,7.00
2019-05-29T01:32:35.026Z,6.97
2019-05-29T01:33:35.017Z,6.95
2019-05-29T01:34:35.003Z,6.93
2019-05-29T01:35:34.997Z,6.87
2019-05-29T01:36:35.007Z,6.96
2019-05-29T01:37:34.970Z,6.88
2019-05-29T01:38:34.961Z,6.89
2019-05-29T01:39:34.954Z,6.92
2019-05-29T01:40:34.939Z,6.88
2019-05-29T01:41:34.924Z,6.79
2019-05-29T01:42:34.942Z,6.78
2019-05-29T01:43:34.908Z,6.79
2019-05-29T01:44:34.894Z,6.84
2019-05-29T01:45:34.910Z,6.88
2019-05-29T01:46:34.870Z,6.84
2019-05-29T01:47:34.882Z,6.88
2019-05-29T01:48:34.849Z,6.84
2019-05-29T01:49:34.870Z,6.79
2019-05-29T01:50:34.829Z,6.77
2019-05-29T01:51:34.815Z,6.75
2019-05-29T01:52:34.804Z,6.81
2019-05-29T01:53:34.834Z,6.79
2019-05-29T01:54:34.783Z,6.74
2019-05-29T01:55:34.780Z,6.81
2019-05-29T01:56:34.759Z,6.75
2019-05-29T01:57:34.781Z,6.72
2019-05-29T01:58:34.743Z,6.70
2019-05-29T01:59:34.739Z,6.72
2019-05-29T02:00:34.718Z,6.74
2019-05-29T02:01:34.708Z,6.69
2019-05-29T02:02:34.714Z,6.74
2019-05-29T02:03:34.686Z,6.70
2019-05-29T02:04:34.673Z,6.60
2019-05-29T02:05:34.667Z,6.69
2019-05-29T02:06:34.651Z,6.77
2019-05-29T02:07:34.647Z,6.70
2019-05-29T02:08:34.652Z,6.64
2019-05-29T02:09:34.617Z,6.60
2019-05-29T02:10:34.606Z,6.57
2019-05-29T02:11:34.594Z,6.60
2019-05-29T02:12:34.583Z,6.51
2019-05-29T02:13:34.575Z,6.54
2019-05-29T02:14:34.577Z,6.60
2019-05-29T02:15:34.551Z,6.56
2019-05-29T02:16:34.541Z,6.62
2019-05-29T02:17:34.527Z,6.52
2019-05-29T02:18:34.517Z,6.54
2019-05-29T02:19:34.528Z,6.54
2019-05-29T02:20:34.508Z,6.56
2019-05-29T02:21:34.497Z,6.51
2019-05-29T02:22:34.471Z,6.46
2019-05-29T02:23:34.462Z,6.51
2019-05-29T02:24:34.453Z,6.44
2019-05-29T02:25:34.464Z,6.49
2019-05-29T02:26:34.447Z,6.49
2019-05-29T02:27:34.416Z,6.46
2019-05-29T02:28:34.405Z,6.39
2019-05-29T02:29:34.397Z,6.38
2019-05-29T02:30:34.389Z,6.30
2019-05-29T02:31:34.387Z,6.31
2019-05-29T02:32:34.394Z,6.33
2019-05-29T02:33:34.356Z,6.22
2019-05-29T02:34:34.346Z,6.26
2019-05-29T02:35:34.328Z,6.30
2019-05-29T02:36:34.317Z,6.30
2019-05-29T02:37:34.330Z,6.28
2019-05-29T02:38:34.309Z,6.31
2019-05-29T02:39:34.285Z,6.27
2019-05-29T02:40:34.295Z,6.24
2019-05-29T02:41:34.286Z,6.33
2019-05-29T02:42:34.287Z,6.27
2019-05-29T02:43:34.264Z,6.30
2019-05-29T02:44:34.256Z,6.27
2019-05-29T02:45:52.607Z,6.16
2019-05-29T02:46:35.212Z,6.24
2019-05-29T02:47:34.199Z,6.17
2019-05-29T02:48:34.199Z,6.16
2019-05-29T02:49:34.180Z,6.12
2019-05-29T02:50:34.170Z,6.24
2019-05-29T02:51:34.160Z,6.19
2019-05-29T02:52:34.141Z,6.14
2019-05-29T02:53:34.151Z,6.14
2019-05-29T02:54:34.124Z,6.17
2019-05-29T02:55:34.110Z,6.08
2019-05-29T02:56:34.111Z,6.17
2019-05-29T02:57:34.093Z,6.04
2019-05-29T02:58:34.087Z,6.11
2019-05-29T02:59:34.102Z,6.16
2019-05-29T03:00:34.066Z,6.05
2019-05-29T03:01:34.042Z,6.08
2019-05-29T03:02:34.048Z,6.11
2019-05-29T03:03:39.522Z,6.19
2019-05-29T03:04:35.020Z,6.07
2019-05-29T03:05:34.007Z,6.16
2019-05-29T03:06:33.986Z,6.17
2019-05-29T03:07:33.974Z,6.12
2019-05-29T03:08:34.502Z,6.09
2019-05-29T03:09:33.956Z,6.04
2019-05-29T03:10:33.952Z,5.98
2019-05-29T03:11:33.930Z,6.02
2019-05-29T03:12:33.919Z,5.94
2019-05-29T03:13:33.915Z,5.99
2019-05-29T03:14:34.713Z,6.05
2019-05-29T03:15:33.964Z,6.04
2019-05-29T03:16:34.949Z,6.07
2019-05-29T03:17:33.974Z,6.14
2019-05-29T03:18:35.055Z,6.08
2019-05-29T03:19:34.667Z,6.02
2019-05-29T03:20:34.533Z,6.05
2019-05-29T03:21:34.735Z,5.98
2019-05-29T03:22:35.381Z,5.99
2019-05-29T03:23:35.912Z,5.98
2019-05-29T03:24:35.120Z,5.93
2019-05-29T03:25:35.145Z,5.87
2019-05-29T03:26:35.096Z,5.99
2019-05-29T03:27:34.028Z,5.98
2019-05-29T03:28:34.859Z,5.97
2019-05-29T03:29:34.317Z,6.05
2019-05-29T03:30:41.369Z,5.97
2019-05-29T03:31:41.990Z,5.97
2019-05-29T03:32:45.774Z,5.97
2019-05-29T03:33:43.818Z,5.90
2019-05-29T03:34:42.221Z,5.84
2019-05-29T03:35:43.894Z,5.89
2019-05-29T03:36:42.542Z,5.83
2019-05-29T03:37:34.645Z,5.89
2019-05-29T03:38:34.957Z,5.93
2019-05-29T03:39:34.615Z,5.84
2019-05-29T03:40:35.228Z,5.93
2019-05-29T03:41:34.860Z,5.91
2019-05-29T03:42:34.427Z,5.84
2019-05-29T03:43:35.803Z,5.84
2019-05-29T03:44:35.335Z,5.84
2019-05-29T03:45:35.692Z,5.89
2019-05-29T03:46:41.080Z,5.91
2019-05-29T03:47:35.074Z,5.93
2019-05-29T03:48:34.395Z,5.90
2019-05-29T03:49:35.001Z,5.93
2019-05-29T03:50:34.951Z,5.93
2019-05-29T03:51:35.107Z,5.93
2019-05-29T03:52:34.663Z,5.98
2019-05-29T03:53:34.284Z,5.97
2019-05-29T03:54:35.326Z,5.97
2019-05-29T03:55:33.837Z,5.90
2019-05-29T03:56:34.832Z,5.89
2019-05-29T03:57:33.859Z,5.98
2019-05-29T03:58:34.837Z,5.93
2019-05-29T03:59:35.105Z,5.99
2019-05-29T04:00:41.760Z,5.91
2019-05-29T04:01:35.551Z,5.99
2019-05-29T04:02:35.258Z,5.99
2019-05-29T04:03:35.273Z,5.97
2019-05-29T04:04:34.106Z,6.02
2019-05-29T04:05:33.912Z,6.04
2019-05-29T04:06:33.479Z,6.05
2019-05-29T04:07:34.107Z,6.02
2019-05-29T04:08:33.638Z,5.99
2019-05-29T04:09:33.449Z,6.01
2019-05-29T04:10:35.526Z,6.08
2019-05-29T04:11:33.300Z,6.04
2019-05-29T04:12:33.519Z,6.02
2019-05-29T04:13:34.093Z,5.93
2019-05-29T04:14:33.526Z,5.98
2019-05-29T04:15:33.843Z,6.04
2019-05-29T04:16:52.398Z,5.99
2019-05-29T04:17:35.466Z,6.07
2019-05-29T04:18:33.894Z,5.93
2019-05-29T04:19:34.923Z,6.05
2019-05-29T04:20:33.586Z,6.07
2019-05-29T04:21:34.336Z,6.05
2019-05-29T04:22:34.397Z,6.05
2019-05-29T04:23:34.112Z,6.02
2019-05-29T04:24:33.952Z,6.01
2019-05-29T04:25:36.014Z,6.11
2019-05-29T04:26:34.118Z,6.08
2019-05-29T04:27:34.280Z,6.12
2019-05-29T04:28:34.705Z,6.14
2019-05-29T04:29:34.152Z,6.09
2019-05-29T04:30:34.331Z,6.17
2019-05-29T04:31:34.488Z,6.17
2019-05-29T04:32:34.201Z,6.11
2019-05-29T04:33:34.782Z,6.17
2019-05-29T04:34:34.282Z,6.20
2019-05-29T04:35:34.466Z,6.24
2019-05-29T04:36:34.729Z,6.22
2019-05-29T04:37:34.314Z,6.14
2019-05-29T04:38:33.825Z,6.16
2019-05-29T04:39:34.399Z,6.22
2019-05-29T04:40:34.791Z,6.24
2019-05-29T04:41:34.619Z,6.20
2019-05-29T04:42:33.993Z,6.33
2019-05-29T04:43:33.799Z,6.33
2019-05-29T04:44:33.901Z,6.31
2019-05-29T04:45:33.589Z,6.33
2019-05-29T04:46:34.015Z,6.28
2019-05-29T04:47:33.366Z,6.27
2019-05-29T04:48:34.031Z,6.33
2019-05-29T04:49:33.734Z,6.45
2019-05-29T04:50:33.508Z,6.41
2019-05-29T04:51:33.154Z,6.44
2019-05-29T04:52:33.864Z,6.38
2019-05-29T04:53:33.530Z,6.41
2019-05-29T04:54:33.340Z,6.57
2019-05-29T04:55:32.786Z,6.54
2019-05-29T04:56:32.843Z,6.63
2019-05-29T04:57:32.904Z,6.60
2019-05-29T04:58:32.870Z,6.64
2019-05-29T04:59:33.067Z,6.69
2019-05-29T05:00:33.148Z,6.78
2019-05-29T05:01:33.016Z,6.85
2019-05-29T05:02:33.006Z,6.79
2019-05-29T05:03:33.188Z,6.89
2019-05-29T05:04:33.191Z,6.87
2019-05-29T05:05:33.279Z,7.02
2019-05-29T05:06:33.187Z,7.07
2019-05-29T05:07:33.189Z,7.06
2019-05-29T05:08:33.339Z,7.23
2019-05-29T05:09:33.370Z,7.23
2019-05-29T05:10:33.379Z,7.32
2019-05-29T05:11:33.367Z,7.28
2019-05-29T05:12:33.626Z,7.28
2019-05-29T05:13:33.455Z,7.29
2019-05-29T05:14:33.609Z,7.43
2019-05-29T05:15:33.600Z,7.58
2019-05-29T05:16:33.483Z,7.54
2019-05-29T05:17:33.731Z,7.63
2019-05-29T05:18:33.734Z,7.82
2019-05-29T05:19:33.828Z,7.85
2019-05-29T05:20:32.506Z,7.94
2019-05-29T05:21:32.493Z,8.10
2019-05-29T05:22:32.524Z,8.31
2019-05-29T05:23:32.480Z,8.52
2019-05-29T05:24:32.464Z,8.67
2019-05-29T05:25:32.453Z,8.84
2019-05-29T05:26:32.435Z,8.82
2019-05-29T05:27:32.426Z,8.87
2019-05-29T05:28:32.424Z,9.03
2019-05-29T05:29:32.405Z,9.11
2019-05-29T05:30:32.484Z,9.22
2019-05-29T05:31:32.436Z,9.41
2019-05-29T05:32:32.618Z,9.55
2019-05-29T05:33:32.449Z,9.72
2019-05-29T05:34:32.609Z,9.73
2019-05-29T05:35:32.628Z,9.82
2019-05-29T05:36:32.641Z,9.89
2019-05-29T05:37:32.681Z,10.09
2019-05-29T05:38:32.616Z,10.35
2019-05-29T05:39:32.784Z,10.49
2019-05-29T05:40:33.019Z,10.57
2019-05-29T05:41:32.727Z,10.48
2019-05-29T05:42:32.886Z,10.38
2019-05-29T05:43:32.854Z,10.33
2019-05-29T05:44:32.834Z,10.37
2019-05-29T05:45:32.988Z,10.33
2019-05-29T05:46:32.935Z,10.41
2019-05-29T05:47:44.964Z,10.44
2019-05-29T05:48:33.193Z,10.49
2019-05-29T05:49:33.216Z,10.59
2019-05-29T05:50:33.288Z,10.61
2019-05-29T05:51:33.350Z,10.86
2019-05-29T05:52:33.682Z,11.00
2019-05-29T05:53:33.319Z,11.22
2019-05-29T05:54:33.296Z,11.37
2019-05-29T05:55:33.417Z,11.50
2019-05-29T05:56:33.577Z,11.51
2019-05-29T05:57:32.104Z,11.57
2019-05-29T05:58:32.083Z,11.68
2019-05-29T05:59:32.072Z,11.72
2019-05-29T06:00:32.177Z,11.83
2019-05-29T06:01:32.059Z,12.00
2019-05-29T06:02:32.045Z,12.17
2019-05-29T06:03:32.026Z,12.22
2019-05-29T06:04:32.014Z,12.37
2019-05-29T06:05:32.217Z,12.53
2019-05-29T06:06:32.039Z,12.70
2019-05-29T06:07:32.038Z,12.98
2019-05-29T06:08:32.094Z,12.98
2019-05-29T06:09:32.687Z,13.05
2019-05-29T06:10:32.106Z,13.05
2019-05-29T06:11:32.250Z,13.13
2019-05-29T06:12:32.266Z,13.27
2019-05-29T06:13:32.177Z,13.16
2019-05-29T06:14:32.338Z,13.30
2019-05-29T06:15:32.382Z,13.22
2019-05-29T06:16:32.947Z,13.15
2019-05-29T06:17:32.348Z,13.11
2019-05-29T06:18:32.384Z,13.13
2019-05-29T06:19:32.758Z,13.12
2019-05-29T06:20:32.648Z,13.04
2019-05-29T06:21:32.554Z,13.00
2019-05-29T06:22:32.874Z,13.19
2019-05-29T06:23:32.778Z,13.13
2019-05-29T06:24:33.403Z,12.97
2019-05-29T06:25:33.601Z,12.94
2019-05-29T06:26:32.752Z,12.94
2019-05-29T06:27:33.005Z,13.11
2019-05-29T06:28:32.895Z,13.12
2019-05-29T06:29:33.410Z,13.22
2019-05-29T06:30:33.885Z,13.37
2019-05-29T06:31:31.722Z,13.13
2019-05-29T06:32:31.704Z,13.16
2019-05-29T06:33:31.694Z,13.15
2019-05-29T06:34:31.705Z,13.16
2019-05-29T06:35:31.671Z,13.28
2019-05-29T06:36:31.660Z,13.16
2019-05-29T06:37:31.656Z,13.25
2019-05-29T06:38:31.636Z,13.13
2019-05-29T06:39:31.628Z,13.08
2019-05-29T06:40:31.626Z,13.19
2019-05-29T06:41:31.614Z,13.15
2019-05-29T06:42:31.604Z,13.08
2019-05-29T06:43:31.588Z,13.15
2019-05-29T06:44:31.657Z,13.30
2019-05-29T06:45:31.559Z,13.23
2019-05-29T06:46:31.564Z,13.18
2019-05-29T06:47:31.538Z,13.13
2019-05-29T06:48:42.652Z,13.27
2019-05-29T06:49:32.522Z,13.22
2019-05-29T06:50:31.522Z,13.30
2019-05-29T06:51:31.508Z,13.30
2019-05-29T06:52:31.485Z,12.85
2019-05-29T06:53:31.475Z,12.86
2019-05-29T06:54:31.460Z,12.95
2019-05-29T06:55:31.487Z,13.05
2019-05-29T06:56:31.461Z,13.16
2019-05-29T06:57:31.428Z,13.19
2019-05-29T06:58:31.419Z,13.28
2019-05-29T06:59:31.405Z,13.28
2019-05-29T07:00:35.273Z,13.22
2019-05-29T07:01:31.399Z,13.23
2019-05-29T07:02:31.978Z,13.28
2019-05-29T07:03:31.375Z,13.37
2019-05-29T07:04:31.348Z,13.33
2019-05-29T07:05:31.341Z,13.44
2019-05-29T07:06:31.325Z,13.42
2019-05-29T07:07:31.336Z,13.04
2019-05-29T07:08:38.692Z,12.97
2019-05-29T07:09:32.293Z,13.00
2019-05-29T07:10:31.284Z,13.00
2019-05-29T07:11:31.291Z,13.11
2019-05-29T07:12:31.261Z,13.16
2019-05-29T07:13:34.886Z,13.18
2019-05-29T07:14:31.246Z,13.22
2019-05-29T07:15:31.229Z,13.30
2019-05-29T07:16:43.753Z,13.25
2019-05-29T07:17:32.215Z,13.35
2019-05-29T07:18:31.194Z,13.31
2019-05-29T07:19:47.816Z,13.33
2019-05-29T07:20:32.172Z,13.25
2019-05-29T07:21:31.181Z,13.30
2019-05-29T07:22:31.149Z,13.25
2019-05-29T07:23:31.138Z,13.28
2019-05-29T07:24:31.133Z,13.18
2019-05-29T07:25:31.191Z,13.30
2019-05-29T07:26:31.105Z,13.27
2019-05-29T07:27:31.095Z,13.28
2019-05-29T07:28:31.112Z,13.27
2019-05-29T07:29:31.089Z,13.28
2019-05-29T07:30:31.078Z,13.31
2019-05-29T07:31:31.179Z,13.25
2019-05-29T07:32:31.044Z,13.35
2019-05-29T07:33:31.028Z,13.35
2019-05-29T07:34:49.395Z,13.30
2019-05-29T07:35:32.047Z,13.31
2019-05-29T07:36:31.004Z,13.16
2019-05-29T07:37:31.049Z,13.18
2019-05-29T07:38:30.973Z,13.13
2019-05-29T07:39:30.962Z,13.15
2019-05-29T07:40:34.956Z,13.31
2019-05-29T07:41:30.955Z,13.20
2019-05-29T07:42:30.932Z,13.22
2019-05-29T07:43:30.952Z,13.35
2019-05-29T07:44:30.905Z,13.39
2019-05-29T07:45:30.895Z,13.33
2019-05-29T07:46:30.892Z,13.44
2019-05-29T07:47:30.904Z,13.53
2019-05-29T07:48:30.863Z,13.62
2019-05-29T07:49:39.094Z,13.68
2019-05-29T07:50:31.841Z,13.70
2019-05-29T07:51:30.828Z,13.65
2019-05-29T07:52:30.826Z,13.70
2019-05-29T07:53:33.609Z,13.67
2019-05-29T07:54:30.808Z,13.74
2019-05-29T07:55:30.845Z,13.75
2019-05-29T07:56:30.788Z,13.79
2019-05-29T07:57:30.760Z,13.79
2019-05-29T07:58:30.760Z,13.67
2019-05-29T07:59:30.755Z,13.74
2019-05-29T08:00:35.486Z,13.78
2019-05-29T08:01:31.769Z,13.90
2019-05-29T08:02:30.716Z,14.12
2019-05-29T08:03:30.697Z,14.26
2019-05-29T08:04:30.682Z,14.18
2019-05-29T08:05:30.672Z,14.28
2019-05-29T08:06:30.663Z,14.36
2019-05-29T08:07:30.700Z,14.30
2019-05-29T08:08:30.649Z,14.33
2019-05-29T08:09:30.629Z,14.45
2019-05-29T08:10:30.618Z,14.48
2019-05-29T08:11:30.608Z,14.50
2019-05-29T08:12:30.627Z,14.36
2019-05-29T08:13:30.619Z,14.51
2019-05-29T08:14:30.582Z,14.50
2019-05-29T08:15:30.564Z,14.63
2019-05-29T08:16:30.569Z,14.68
2019-05-29T08:17:30.538Z,14.79
2019-05-29T08:18:30.541Z,14.68
2019-05-29T08:19:30.674Z,14.70
2019-05-29T08:20:30.549Z,14.72
2019-05-29T08:21:30.493Z,14.86
2019-05-29T08:22:34.532Z,14.91
2019-05-29T08:23:30.497Z,14.99
2019-05-29T08:24:30.464Z,15.09
2019-05-29T08:25:30.462Z,15.21
2019-05-29T08:26:30.442Z,15.29
2019-05-29T08:27:30.458Z,15.37
2019-05-29T08:28:30.416Z,15.51
2019-05-29T08:29:30.430Z,15.52
2019-05-29T08:30:30.395Z,15.76
2019-05-29T08:31:30.393Z,15.77
2019-05-29T08:32:30.372Z,15.72
2019-05-29T08:33:30.380Z,15.70
2019-05-29T08:34:30.350Z,15.80
2019-05-29T08:35:30.338Z,15.92
2019-05-29T08:36:30.360Z,15.86
2019-05-29T08:37:30.365Z,15.90
2019-05-29T08:38:30.351Z,15.90
2019-05-29T08:39:36.135Z,16.00
2019-05-29T08:40:31.290Z,16.08
2019-05-29T08:41:30.274Z,16.16
2019-05-29T08:42:30.264Z,16.28
2019-05-29T08:43:30.303Z,16.39
2019-05-29T08:44:30.255Z,16.23
2019-05-29T08:45:30.269Z,16.33
2019-05-29T08:46:33.305Z,16.43
2019-05-29T08:47:30.210Z,16.35
2019-05-29T08:48:30.221Z,16.49
2019-05-29T08:49:30.251Z,16.43
2019-05-29T08:50:30.190Z,16.42
2019-05-29T08:51:30.163Z,16.49
2019-05-29T08:52:30.151Z,16.50
2019-05-29T08:53:30.140Z,16.42
2019-05-29T08:54:30.143Z,16.51
2019-05-29T08:55:30.163Z,16.47
2019-05-29T08:56:30.117Z,16.47
2019-05-29T08:57:30.109Z,16.47
2019-05-29T08:58:30.088Z,16.43
2019-05-29T08:59:30.074Z,16.42
2019-05-29T09:00:30.064Z,16.53
2019-05-29T09:01:30.104Z,16.46
2019-05-29T09:02:30.060Z,16.54
2019-05-29T09:03:30.034Z,16.68
2019-05-29T09:04:30.024Z,16.69
2019-05-29T09:05:30.008Z,16.47
2019-05-29T09:06:30.013Z,16.09
2019-05-29T09:07:30.005Z,15.98
2019-05-29T09:08:29.979Z,16.05
2019-05-29T09:09:29.989Z,16.31
2019-05-29T09:10:29.953Z,16.51
2019-05-29T09:11:29.946Z,16.83
2019-05-29T09:12:30.201Z,17.02
2019-05-29T09:13:29.943Z,17.14
2019-05-29T09:14:29.915Z,17.06
2019-05-29T09:15:29.898Z,16.96
2019-05-29T09:16:29.885Z,16.76
2019-05-29T09:17:29.877Z,16.79
2019-05-29T09:18:29.878Z,16.94
2019-05-29T09:19:29.871Z,17.05
2019-05-29T09:20:50.218Z,16.91
2019-05-29T09:21:30.830Z,17.06
2019-05-29T09:22:29.841Z,17.24
2019-05-29T09:23:29.809Z,17.26
2019-05-29T09:24:29.819Z,17.38
2019-05-29T09:25:29.810Z,17.27
2019-05-29T09:26:29.775Z,17.26
2019-05-29T09:27:29.764Z,17.20
2019-05-29T09:28:29.765Z,17.20
2019-05-29T09:29:29.753Z,17.49
2019-05-29T09:30:29.742Z,17.59
2019-05-29T09:31:29.769Z,17.72
2019-05-29T09:32:48.360Z,17.80
2019-05-29T09:33:30.710Z,17.94
2019-05-29T09:34:29.708Z,17.97
2019-05-29T09:35:29.715Z,17.57
2019-05-29T09:36:29.700Z,17.64
2019-05-29T09:37:29.693Z,17.51
2019-05-29T09:38:29.660Z,17.52
2019-05-29T09:39:29.639Z,17.52
2019-05-29T09:40:29.620Z,17.60
2019-05-29T09:41:29.627Z,17.49
2019-05-29T09:42:29.599Z,17.54
2019-05-29T09:43:30.909Z,17.49
2019-05-29T09:44:38.247Z,17.52
2019-05-29T09:45:30.600Z,17.52
2019-05-29T09:46:29.554Z,17.59
2019-05-29T09:47:29.567Z,17.78
2019-05-29T09:48:29.531Z,17.83
2019-05-29T09:49:29.560Z,17.78
2019-05-29T09:50:48.478Z,17.67
2019-05-29T09:51:30.511Z,17.64
2019-05-29T09:52:30.803Z,17.52
2019-05-29T09:53:29.503Z,17.51
2019-05-29T09:54:29.556Z,17.38
2019-05-29T09:55:29.499Z,17.54
2019-05-29T09:56:29.454Z,17.63
2019-05-29T09:57:29.461Z,17.52
2019-05-29T09:58:29.436Z,17.68
2019-05-29T09:59:29.437Z,17.72
2019-05-29T10:00:37.941Z,17.80
2019-05-29T10:01:29.387Z,18.03
2019-05-29T10:02:29.374Z,18.15
2019-05-29T10:03:29.367Z,18.23
2019-05-29T10:04:29.355Z,18.35
2019-05-29T10:05:29.356Z,18.29
2019-05-29T10:06:29.336Z,18.23
2019-05-29T10:07:29.334Z,18.25
2019-05-29T10:08:29.330Z,18.35
2019-05-29T10:09:29.313Z,18.31
2019-05-29T10:10:29.305Z,18.07
2019-05-29T10:11:29.282Z,18.15
2019-05-29T10:12:29.267Z,18.28
2019-05-29T10:13:29.261Z,17.95
2019-05-29T10:14:29.256Z,17.78
2019-05-29T10:15:29.249Z,17.90
2019-05-29T10:16:29.238Z,18.00
2019-05-29T10:17:29.215Z,17.95
2019-05-29T10:18:32.495Z,18.01
2019-05-29T10:19:29.194Z,18.18
2019-05-29T10:20:29.187Z,17.90
2019-05-29T10:21:39.965Z,17.80
2019-05-29T10:22:30.167Z,17.90
2019-05-29T10:23:29.146Z,18.05
2019-05-29T10:24:32.318Z,18.16
2019-05-29T10:25:29.124Z,18.20
2019-05-29T10:26:29.128Z,18.34
2019-05-29T10:27:29.118Z,18.00
2019-05-29T10:28:48.350Z,18.05
2019-05-29T10:29:30.093Z,18.05
2019-05-29T10:30:29.068Z,18.29
2019-05-29T10:31:29.071Z,18.53
2019-05-29T10:32:29.061Z,18.45
2019-05-29T10:33:29.052Z,18.56
2019-05-29T10:34:29.057Z,18.63
2019-05-29T10:35:29.023Z,18.15
2019-05-29T10:36:29.026Z,17.48
2019-05-29T10:37:29.024Z,17.09
2019-05-29T10:38:28.999Z,16.94
2019-05-29T10:39:28.967Z,16.76
2019-05-29T10:40:28.964Z,16.81
2019-05-29T10:41:28.945Z,16.91
2019-05-29T10:42:29.044Z,17.23
2019-05-29T10:43:34.188Z,17.59
2019-05-29T10:44:29.942Z,17.83
2019-05-29T10:45:28.923Z,18.03
2019-05-29T10:46:28.904Z,18.05
2019-05-29T10:47:28.903Z,18.03
2019-05-29T10:48:28.877Z,18.13
2019-05-29T10:49:28.865Z,18.08
2019-05-29T10:50:28.846Z,18.29
2019-05-29T10:51:28.834Z,18.37
2019-05-29T10:52:28.850Z,18.53
2019-05-29T10:53:28.839Z,18.62
2019-05-29T10:54:28.804Z,18.66
2019-05-29T10:55:28.799Z,18.93
2019-05-29T10:56:28.792Z,19.08
2019-05-29T10:57:28.768Z,19.15
2019-05-29T10:58:28.987Z,19.31
2019-05-29T10:59:28.804Z,19.30
2019-05-29T11:00:28.765Z,19.07
2019-05-29T11:01:28.745Z,18.99
2019-05-29T11:02:28.747Z,19.16
2019-05-29T11:03:28.712Z,19.29
2019-05-29T11:04:28.689Z,19.33
2019-05-29T11:05:28.693Z,19.22
2019-05-29T11:06:28.671Z,19.22
2019-05-29T11:07:28.662Z,19.51
2019-05-29T11:08:28.664Z,19.48
2019-05-29T11:09:43.206Z,19.29
2019-05-29T11:10:29.640Z,19.37
2019-05-29T11:11:28.624Z,19.27
2019-05-29T11:12:28.605Z,19.44
2019-05-29T11:13:28.598Z,19.39
2019-05-29T11:14:28.598Z,19.45
2019-05-29T11:15:28.577Z,19.54
2019-05-29T11:16:28.562Z,19.55
2019-05-29T11:17:28.556Z,19.40
2019-05-29T11:18:28.580Z,19.34
2019-05-29T11:19:28.540Z,19.27
2019-05-29T11:20:28.518Z,19.30
2019-05-29T11:21:28.562Z,19.15
2019-05-29T11:22:28.497Z,19.04
2019-05-29T11:23:28.534Z,18.98
2019-05-29T11:24:28.498Z,19.00
2019-05-29T11:25:28.502Z,18.95
2019-05-29T11:26:28.463Z,18.75
2019-05-29T11:27:28.449Z,18.83
2019-05-29T11:28:28.429Z,18.53
2019-05-29T11:29:28.430Z,18.44
2019-05-29T11:30:28.428Z,18.56
2019-05-29T11:31:28.410Z,18.77
2019-05-29T11:32:28.446Z,18.77
2019-05-29T11:33:28.402Z,18.86
2019-05-29T11:34:28.364Z,18.88
2019-05-29T11:35:28.351Z,18.92
2019-05-29T11:36:28.360Z,19.08
2019-05-29T11:37:28.348Z,18.86
2019-05-29T11:38:28.351Z,18.81
2019-05-29T11:39:28.312Z,18.70
2019-05-29T11:40:28.496Z,18.83
2019-05-29T11:41:28.293Z,18.75
2019-05-29T11:42:28.417Z,18.93
2019-05-29T11:43:28.268Z,19.07
2019-05-29T11:44:28.257Z,19.30
2019-05-29T11:45:28.253Z,19.24
2019-05-29T11:46:28.231Z,19.00
2019-05-29T11:47:28.234Z,19.02
2019-05-29T11:48:28.238Z,19.26
2019-05-29T11:49:28.200Z,18.99
2019-05-29T11:50:28.190Z,18.93
2019-05-29T11:51:28.187Z,19.08
2019-05-29T11:52:39.838Z,19.29
2019-05-29T11:53:29.176Z,19.37
2019-05-29T11:54:28.144Z,19.12
2019-05-29T11:55:28.136Z,19.02
2019-05-29T11:56:28.128Z,18.95
2019-05-29T11:57:28.112Z,19.09
2019-05-29T11:58:31.026Z,19.24
2019-05-29T11:59:28.145Z,19.30
2019-05-29T12:00:28.079Z,19.19
2019-05-29T12:01:28.065Z,19.09
2019-05-29T12:02:28.067Z,19.18
2019-05-29T12:03:28.045Z,19.19
2019-05-29T12:04:28.035Z,19.31
2019-05-29T12:05:28.046Z,19.26
2019-05-29T12:06:28.049Z,19.45
2019-05-29T12:07:28.003Z,19.54
2019-05-29T12:08:27.991Z,19.63
2019-05-29T12:09:32.726Z,19.71
2019-05-29T12:10:28.986Z,19.69
2019-05-29T12:11:27.968Z,19.58
2019-05-29T12:12:27.949Z,19.64
2019-05-29T12:13:27.936Z,19.81
2019-05-29T12:14:27.924Z,19.73
2019-05-29T12:15:27.915Z,19.84
2019-05-29T12:16:27.918Z,19.54
2019-05-29T12:17:27.924Z,19.59
2019-05-29T12:18:27.894Z,19.69
2019-05-29T12:19:27.887Z,19.86
2019-05-29T12:20:28.998Z,19.73
2019-05-29T12:21:27.852Z,19.69
2019-05-29T12:22:27.854Z,19.67
2019-05-29T12:23:27.843Z,19.52
2019-05-29T12:24:27.821Z,19.66
2019-05-29T12:25:27.803Z,19.73
2019-05-29T12:26:27.792Z,19.84
2019-05-29T12:27:27.798Z,19.96
2019-05-29T12:28:27.781Z,20.11
2019-05-29T12:29:27.780Z,20.16
2019-05-29T12:30:27.749Z,20.19
2019-05-29T12:31:27.772Z,20.09
2019-05-29T12:32:27.743Z,20.02
2019-05-29T12:33:27.717Z,19.91
2019-05-29T12:34:27.707Z,19.86
2019-05-29T12:35:27.708Z,19.77
2019-05-29T12:36:27.684Z,19.41
2019-05-29T12:37:27.688Z,19.34
2019-05-29T12:38:27.665Z,19.26
2019-05-29T12:39:27.654Z,19.22
2019-05-29T12:40:27.640Z,19.31
2019-05-29T12:41:27.654Z,19.27
2019-05-29T12:42:27.632Z,19.40
2019-05-29T12:43:28.259Z,19.62
2019-05-29T12:44:27.598Z,19.70
2019-05-29T12:45:27.591Z,19.67
2019-05-29T12:46:27.574Z,19.62
2019-05-29T12:47:27.576Z,19.66
2019-05-29T12:48:27.567Z,19.48
2019-05-29T12:49:27.543Z,19.49
2019-05-29T12:50:27.534Z,19.47
2019-05-29T12:51:27.536Z,19.56
2019-05-29T12:52:27.510Z,19.59
2019-05-29T12:53:30.846Z,19.39
2019-05-29T12:54:27.501Z,19.31
2019-05-29T12:55:27.477Z,19.51
2019-05-29T12:56:27.475Z,19.41
2019-05-29T12:57:27.532Z,19.62
2019-05-29T12:58:27.447Z,19.86
2019-05-29T12:59:27.448Z,20.07
2019-05-29T13:00:27.422Z,20.18
2019-05-29T13:01:27.414Z,19.94
2019-05-29T13:02:27.452Z,19.88
2019-05-29T13:03:27.445Z,19.84